createdAt,value
2019-02-11T00:00:05.665Z,4.02
2019-02-11T00:02:33.099Z,4.03
2019-02-11T00:05:00.508Z,3.73
2019-02-11T00:07:27.938Z,3.87
2019-02-11T00:09:55.305Z,4.26
2019-02-11T00:12:22.730Z,4.29
2019-02-11T00:14:50.184Z,4.21
2019-02-11T00:17:17.548Z,4.20
2019-02-11T00:19:44.967Z,4.18
2019-02-11T00:22:12.412Z,4.15
2019-02-11T00:24:39.843Z,4.27
2019-02-11T00:27:07.220Z,4.26
2019-02-11T00:29:34.632Z,4.29
2019-02-11T00:32:02.190Z,4.35
2019-02-11T00:34:29.589Z,4.41
2019-02-11T00:36:57.011Z,4.33
2019-02-11T00:39:24.412Z,4.37
2019-02-11T00:41:51.807Z,4.42
2019-02-11T00:44:19.232Z,4.51
2019-02-11T00:46:46.770Z,4.39
2019-02-11T00:49:14.135Z,4.26
2019-02-11T00:51:41.762Z,4.37
2019-02-11T00:54:09.252Z,4.47
2019-02-11T00:56:36.700Z,4.53
2019-02-11T00:59:04.142Z,4.39
2019-02-11T01:01:31.499Z,4.42
2019-02-11T01:03:58.969Z,4.37
2019-02-11T01:06:26.400Z,4.30
2019-02-11T01:08:53.741Z,4.41
2019-02-11T01:11:21.176Z,4.54
2019-02-11T01:13:48.568Z,4.64
2019-02-11T01:16:16.006Z,4.59
2019-02-11T01:18:43.730Z,4.52
2019-02-11T01:21:11.124Z,4.70
2019-02-11T01:23:38.546Z,4.62
2019-02-11T01:26:06.020Z,4.64
2019-02-11T01:28:33.487Z,4.48
2019-02-11T01:31:00.915Z,4.36
2019-02-11T01:33:28.350Z,4.31
2019-02-11T01:35:55.778Z,4.25
2019-02-11T01:38:23.606Z,4.20
2019-02-11T01:40:51.048Z,4.32
2019-02-11T01:43:18.495Z,4.24
2019-02-11T01:45:45.960Z,4.35
2019-02-11T01:48:13.448Z,4.25
2019-02-11T01:50:40.903Z,4.15
2019-02-11T01:53:09.008Z,3.99
2019-02-11T01:55:36.648Z,3.99
2019-02-11T01:58:04.420Z,4.08
2019-02-11T02:00:32.243Z,4.01
2019-02-11T02:02:59.759Z,3.97
2019-02-11T02:05:29.699Z,4.15
2019-02-11T02:07:57.144Z,3.99
2019-02-11T02:10:24.613Z,3.89
2019-02-11T02:12:52.014Z,3.67
2019-02-11T02:15:19.388Z,3.89
2019-02-11T02:17:47.079Z,4.02
2019-02-11T02:20:14.546Z,3.95
2019-02-11T02:22:42.083Z,3.93
2019-02-11T02:25:09.665Z,3.59
2019-02-11T02:27:37.096Z,3.67
2019-02-11T02:30:05.465Z,3.60
2019-02-11T02:32:32.894Z,3.61
2019-02-11T02:35:00.568Z,3.76
2019-02-11T02:37:27.984Z,3.67
2019-02-11T02:39:55.432Z,3.88
2019-02-11T02:42:23.598Z,4.06
2019-02-11T02:44:51.278Z,3.93
2019-02-11T02:47:18.911Z,3.91
2019-02-11T02:49:46.589Z,3.84
2019-02-11T02:52:13.976Z,3.71
2019-02-11T02:54:41.840Z,3.51
2019-02-11T02:57:09.355Z,3.43
2019-02-11T02:59:36.819Z,3.52
2019-02-11T03:02:04.988Z,3.35
2019-02-11T03:04:32.456Z,3.09
2019-02-11T03:06:59.904Z,2.95
2019-02-11T03:09:27.290Z,2.94
2019-02-11T03:11:54.809Z,2.85
2019-02-11T03:14:22.294Z,2.79
2019-02-11T03:16:49.669Z,2.80
2019-02-11T03:19:17.113Z,2.96
2019-02-11T03:21:44.687Z,2.87
2019-02-11T03:24:12.330Z,2.54
2019-02-11T03:26:39.804Z,2.68
2019-02-11T03:29:07.221Z,2.66
2019-02-11T03:31:34.778Z,2.74
2019-02-11T03:34:02.213Z,2.60
2019-02-11T03:36:29.636Z,2.71
2019-02-11T03:38:57.026Z,2.80
2019-02-11T03:41:24.503Z,2.88
2019-02-11T03:43:52.039Z,3.05
2019-02-11T03:46:19.478Z,2.99
2019-02-11T03:48:46.960Z,2.90
2019-02-11T03:51:14.666Z,2.92
2019-02-11T03:53:42.256Z,2.98
2019-02-11T03:56:09.799Z,2.93
2019-02-11T03:58:37.351Z,2.87
2019-02-11T04:01:04.741Z,2.89
2019-02-11T04:03:32.154Z,2.93
2019-02-11T04:05:59.590Z,3.33
2019-02-11T04:08:27.244Z,3.36
2019-02-11T04:10:54.913Z,3.42
2019-02-11T04:13:22.283Z,3.49
2019-02-11T04:15:49.743Z,3.54
2019-02-11T04:18:17.212Z,3.54
2019-02-11T04:20:44.640Z,3.40
2019-02-11T04:23:12.068Z,3.63
2019-02-11T04:25:39.536Z,3.52
2019-02-11T04:28:06.915Z,3.27
2019-02-11T04:30:34.336Z,3.40
2019-02-11T04:33:01.751Z,3.57
2019-02-11T04:35:29.246Z,3.59
2019-02-11T04:37:56.715Z,3.44
2019-02-11T04:40:24.180Z,3.53
2019-02-11T04:42:51.635Z,3.61
2019-02-11T04:45:19.089Z,3.87
2019-02-11T04:47:46.500Z,3.69
2019-02-11T04:50:13.941Z,3.97
2019-02-11T04:52:41.397Z,3.76
2019-02-11T04:55:08.883Z,3.56
2019-02-11T04:57:36.451Z,3.42
2019-02-11T05:00:05.390Z,3.35
2019-02-11T05:02:32.799Z,3.42
2019-02-11T05:05:00.239Z,3.28
2019-02-11T05:07:27.682Z,3.21
2019-02-11T05:09:55.043Z,3.22
2019-02-11T05:12:22.483Z,3.30
2019-02-11T05:14:50.052Z,3.55
2019-02-11T05:17:17.509Z,3.26
2019-02-11T05:19:44.923Z,3.10
2019-02-11T05:22:12.343Z,2.95
2019-02-11T05:24:39.788Z,2.92
2019-02-11T05:27:07.219Z,2.79
2019-02-11T05:29:34.617Z,2.65
2019-02-11T05:32:02.036Z,2.63
2019-02-11T05:34:29.489Z,2.53
2019-02-11T05:36:56.920Z,2.48
2019-02-11T05:39:24.367Z,2.27
2019-02-11T05:41:51.857Z,2.15
2019-02-11T05:44:19.249Z,2.21
2019-02-11T05:46:46.738Z,2.11
2019-02-11T05:49:14.213Z,2.13
2019-02-11T05:51:41.627Z,2.37
2019-02-11T05:54:09.052Z,2.68
2019-02-11T05:56:36.489Z,2.63
2019-02-11T05:59:04.227Z,2.64
2019-02-11T06:01:31.717Z,2.56
2019-02-11T06:03:59.123Z,2.72
2019-02-11T06:06:26.563Z,2.95
2019-02-11T06:08:54.024Z,3.06
2019-02-11T06:11:21.374Z,3.13
2019-02-11T06:13:48.862Z,3.29
2019-02-11T06:16:16.309Z,3.43
2019-02-11T06:18:43.804Z,3.60
2019-02-11T06:21:11.236Z,3.61
2019-02-11T06:23:38.696Z,3.50
2019-02-11T06:26:06.126Z,3.50
2019-02-11T06:28:33.509Z,3.60
2019-02-11T06:31:00.978Z,3.63
2019-02-11T06:33:28.400Z,3.73
2019-02-11T06:35:55.828Z,3.91
2019-02-11T06:38:23.248Z,4.07
2019-02-11T06:40:50.742Z,4.43
2019-02-11T06:43:18.172Z,4.59
2019-02-11T06:45:45.600Z,4.89
2019-02-11T06:48:13.050Z,4.68
2019-02-11T06:50:40.481Z,4.50
2019-02-11T06:53:08.018Z,4.42
2019-02-11T06:55:35.476Z,4.41
2019-02-11T06:58:02.893Z,4.44
2019-02-11T07:00:30.496Z,4.32
2019-02-11T07:02:57.974Z,4.21
2019-02-11T07:05:25.370Z,4.62
2019-02-11T07:07:52.817Z,4.57
2019-02-11T07:10:20.249Z,4.53
2019-02-11T07:12:47.629Z,4.78
2019-02-11T07:15:21.916Z,5.02
2019-02-11T07:17:44.467Z,5.08
2019-02-11T07:20:11.884Z,5.05
2019-02-11T07:22:39.314Z,5.21
2019-02-11T07:25:07.413Z,5.01
2019-02-11T07:27:34.863Z,5.31
2019-02-11T07:30:02.433Z,5.48
2019-02-11T07:32:29.887Z,5.82
2019-02-11T07:34:57.245Z,5.95
2019-02-11T07:37:24.677Z,6.08
2019-02-11T07:39:52.073Z,5.77
2019-02-11T07:42:25.564Z,5.52
2019-02-11T07:44:58.266Z,5.27
2019-02-11T07:47:25.708Z,5.20
2019-02-11T07:49:53.153Z,5.21
2019-02-11T07:52:26.642Z,5.36
2019-02-11T07:54:49.948Z,5.42
2019-02-11T07:57:17.326Z,5.40
2019-02-11T07:59:44.790Z,5.49
2019-02-11T08:02:12.299Z,5.67
2019-02-11T08:04:39.731Z,5.84
2019-02-11T08:07:07.217Z,5.89
2019-02-11T08:09:34.697Z,5.91
2019-02-11T08:12:02.152Z,6.12
2019-02-11T08:14:29.909Z,6.12
2019-02-11T08:16:57.275Z,6.08
2019-02-11T08:19:26.527Z,6.12
2019-02-11T08:21:53.981Z,6.46
2019-02-11T08:24:21.382Z,6.57
2019-02-11T08:26:48.809Z,6.72
2019-02-11T08:29:16.204Z,6.77
2019-02-11T08:31:43.657Z,6.84
2019-02-11T08:34:11.084Z,7.00
2019-02-11T08:36:38.444Z,6.97
2019-02-11T08:39:06.674Z,7.06
2019-02-11T08:41:34.199Z,7.06
2019-02-11T08:44:01.861Z,7.09
2019-02-11T08:46:29.284Z,7.07
2019-02-11T08:48:56.723Z,7.07
2019-02-11T08:51:26.088Z,7.13
2019-02-11T08:53:53.633Z,7.16
2019-02-11T08:56:21.060Z,7.41
2019-02-11T08:58:48.433Z,7.67
2019-02-11T09:01:15.870Z,7.85
2019-02-11T09:03:43.546Z,8.24
2019-02-11T09:06:11.056Z,8.29
2019-02-11T09:08:38.514Z,8.06
2019-02-11T09:11:06.007Z,8.14
2019-02-11T09:13:33.375Z,7.98
2019-02-11T09:16:00.949Z,7.99
2019-02-11T09:18:28.388Z,7.90
2019-02-11T09:20:55.809Z,7.88
2019-02-11T09:23:23.334Z,7.83
2019-02-11T09:25:50.805Z,7.93
2019-02-11T09:28:18.380Z,7.85
2019-02-11T09:30:45.748Z,7.75
2019-02-11T09:33:13.183Z,8.04
2019-02-11T09:35:41.316Z,8.06
2019-02-11T09:38:08.682Z,8.40
2019-02-11T09:40:36.169Z,8.29
2019-02-11T09:43:03.772Z,8.29
2019-02-11T09:45:31.238Z,8.26
2019-02-11T09:47:58.776Z,8.31
2019-02-11T09:50:38.745Z,8.34
2019-02-11T09:53:06.611Z,8.44
2019-02-11T09:55:34.268Z,8.27
2019-02-11T09:58:01.714Z,8.20
2019-02-11T10:00:29.599Z,8.19
2019-02-11T10:02:57.133Z,8.05
2019-02-11T10:05:24.674Z,8.07
2019-02-11T10:07:52.282Z,8.07
2019-02-11T10:10:19.735Z,8.09
2019-02-11T10:12:47.303Z,8.15
2019-02-11T10:15:15.210Z,8.11
2019-02-11T10:17:42.831Z,8.19
2019-02-11T10:20:10.470Z,8.36
2019-02-11T10:22:38.031Z,8.42
2019-02-11T10:25:08.638Z,8.40
2019-02-11T10:27:36.139Z,8.26
2019-02-11T10:30:04.526Z,8.28
2019-02-11T10:32:31.958Z,8.31
2019-02-11T10:34:59.453Z,8.32
2019-02-11T10:37:26.946Z,8.37
2019-02-11T10:39:54.442Z,8.27
2019-02-11T10:42:21.886Z,8.44
2019-02-11T10:44:49.321Z,8.57
2019-02-11T10:47:16.878Z,8.62
2019-02-11T10:49:44.554Z,8.59
2019-02-11T10:52:12.363Z,8.58
2019-02-11T10:54:39.867Z,8.78
2019-02-11T10:57:07.343Z,9.13
2019-02-11T10:59:34.848Z,9.23
2019-02-11T11:02:02.392Z,9.45
2019-02-11T11:04:29.848Z,9.57
2019-02-11T11:06:57.365Z,9.46
2019-02-11T11:09:24.853Z,9.40
2019-02-11T11:11:52.262Z,9.25
2019-02-11T11:14:19.720Z,9.11
2019-02-11T11:16:47.154Z,9.19
2019-02-11T11:19:14.569Z,9.21
2019-02-11T11:21:42.285Z,9.07
2019-02-11T11:24:09.753Z,9.22
2019-02-11T11:26:37.265Z,9.13
2019-02-11T11:29:05.985Z,9.15
2019-02-11T11:31:33.644Z,9.44
2019-02-11T11:34:01.114Z,9.65
2019-02-11T11:36:28.609Z,9.48
2019-02-11T11:38:56.072Z,9.75
2019-02-11T11:41:24.429Z,9.72
2019-02-11T11:43:51.884Z,9.50
2019-02-11T11:46:19.418Z,9.30
2019-02-11T11:48:46.891Z,9.19
2019-02-11T11:51:14.669Z,9.23
2019-02-11T11:53:42.096Z,9.11
2019-02-11T11:56:09.524Z,9.01
2019-02-11T11:58:37.222Z,8.97
2019-02-11T12:01:05.079Z,9.34
2019-02-11T12:03:32.457Z,9.43
2019-02-11T12:05:59.893Z,9.42
2019-02-11T12:08:27.314Z,9.55
2019-02-11T12:10:54.701Z,9.53
2019-02-11T12:13:23.726Z,9.42
2019-02-11T12:15:51.506Z,9.30
2019-02-11T12:18:18.977Z,9.38
2019-02-11T12:20:46.453Z,9.34
2019-02-11T12:23:13.971Z,9.42
2019-02-11T12:25:41.349Z,9.44
2019-02-11T12:28:08.864Z,9.43
2019-02-11T12:30:36.320Z,9.43
2019-02-11T12:33:03.927Z,9.40
2019-02-11T12:35:31.445Z,9.66
2019-02-11T12:37:58.976Z,9.46
2019-02-11T12:40:26.583Z,9.41
2019-02-11T12:42:54.512Z,9.41
2019-02-11T12:45:22.636Z,9.34
2019-02-11T12:47:50.224Z,9.37
2019-02-11T12:50:18.305Z,9.50
2019-02-11T12:52:46.027Z,9.65
2019-02-11T12:55:13.971Z,9.94
2019-02-11T12:57:41.612Z,10.39
2019-02-11T13:00:17.013Z,10.41
2019-02-11T13:02:44.213Z,10.65
2019-02-11T13:05:12.203Z,10.69
2019-02-11T13:07:39.820Z,10.77
2019-02-11T13:10:10.176Z,10.65
2019-02-11T13:12:37.735Z,10.57
2019-02-11T13:15:06.011Z,10.65
2019-02-11T13:17:34.963Z,10.79
2019-02-11T13:20:08.953Z,10.94
2019-02-11T13:22:32.513Z,10.97
2019-02-11T13:24:59.989Z,10.88
2019-02-11T13:27:27.491Z,10.77
2019-02-11T13:29:55.079Z,10.85
2019-02-11T13:32:22.492Z,10.80
2019-02-11T13:34:49.928Z,10.88
2019-02-11T13:37:17.395Z,10.73
2019-02-11T13:39:44.775Z,10.60
2019-02-11T13:42:12.365Z,10.55
2019-02-11T13:44:39.944Z,10.47
2019-02-11T13:47:07.639Z,10.54
2019-02-11T13:49:35.099Z,10.59
2019-02-11T13:52:02.726Z,10.63
2019-02-11T13:54:30.279Z,10.70
2019-02-11T13:56:57.758Z,10.74
2019-02-11T13:59:25.201Z,10.83
2019-02-11T14:01:52.815Z,10.94
2019-02-11T14:04:20.329Z,11.14
2019-02-11T14:06:47.949Z,11.00
2019-02-11T14:09:15.526Z,10.98
2019-02-11T14:11:42.913Z,11.00
2019-02-11T14:14:10.403Z,11.00
2019-02-11T14:16:38.031Z,10.97
2019-02-11T14:19:05.503Z,10.99
2019-02-11T14:21:33.026Z,11.01
2019-02-11T14:24:00.492Z,11.02
2019-02-11T14:26:27.940Z,10.92
2019-02-11T14:28:55.417Z,10.86
2019-02-11T14:31:22.860Z,10.87
2019-02-11T14:33:50.266Z,10.78
2019-02-11T14:36:17.728Z,10.79
2019-02-11T14:38:45.212Z,10.78
2019-02-11T14:41:12.746Z,10.84
2019-02-11T14:43:40.267Z,10.85
2019-02-11T14:46:07.819Z,10.92
2019-02-11T14:48:35.274Z,10.92
2019-02-11T14:51:02.724Z,10.96
2019-02-11T14:53:30.304Z,10.97
2019-02-11T14:55:57.747Z,10.97
2019-02-11T14:58:25.132Z,11.15
2019-02-11T15:00:52.608Z,11.30
2019-02-11T15:03:20.041Z,11.31
2019-02-11T15:05:47.468Z,11.48
2019-02-11T15:08:14.865Z,11.39
2019-02-11T15:10:42.273Z,11.53
2019-02-11T15:13:09.733Z,11.53
2019-02-11T15:15:37.879Z,11.48
2019-02-11T15:18:05.432Z,11.39
2019-02-11T15:20:32.858Z,11.35
2019-02-11T15:23:00.343Z,11.61
2019-02-11T15:25:27.818Z,11.68
2019-02-11T15:27:55.249Z,11.57
2019-02-11T15:30:22.727Z,11.77
2019-02-11T15:32:50.209Z,12.08
2019-02-11T15:35:17.871Z,12.24
2019-02-11T15:37:45.278Z,12.24
2019-02-11T15:40:14.754Z,12.42
2019-02-11T15:42:42.195Z,12.63
2019-02-11T15:45:11.023Z,12.61
2019-02-11T15:47:38.389Z,12.69
2019-02-11T15:50:07.169Z,12.74
2019-02-11T15:52:35.063Z,13.02
2019-02-11T15:55:03.981Z,13.15
2019-02-11T15:57:31.427Z,13.01
2019-02-11T15:59:58.841Z,12.92
2019-02-11T16:02:26.212Z,13.13
2019-02-11T16:05:01.838Z,13.36
2019-02-11T16:07:23.041Z,13.53
2019-02-11T16:09:50.508Z,13.47
2019-02-11T16:12:18.167Z,13.37
2019-02-11T16:14:45.613Z,13.60
2019-02-11T16:17:13.004Z,13.56
2019-02-11T16:19:40.485Z,13.50
2019-02-11T16:22:08.042Z,13.24
2019-02-11T16:24:35.424Z,12.62
2019-02-11T16:27:02.866Z,11.94
2019-02-11T16:29:30.298Z,10.90
2019-02-11T16:32:00.759Z,10.33
2019-02-11T16:34:26.977Z,10.01
2019-02-11T16:36:54.414Z,10.06
2019-02-11T16:39:21.768Z,10.04
2019-02-11T16:41:49.235Z,10.26
2019-02-11T16:44:16.684Z,10.56
2019-02-11T16:46:44.105Z,10.88
2019-02-11T16:49:11.559Z,10.90
2019-02-11T16:51:39.396Z,10.82
2019-02-11T16:54:06.792Z,10.64
2019-02-11T16:56:34.362Z,10.66
2019-02-11T16:59:01.735Z,10.63
2019-02-11T17:01:29.268Z,10.79
2019-02-11T17:03:56.690Z,10.80
2019-02-11T17:06:24.123Z,10.65
2019-02-11T17:08:51.586Z,10.56
2019-02-11T17:11:19.043Z,10.57
2019-02-11T17:13:46.476Z,10.46
2019-02-11T17:16:13.999Z,10.52
2019-02-11T17:18:41.434Z,10.48
2019-02-11T17:21:08.890Z,10.35
2019-02-11T17:23:36.430Z,10.37
2019-02-11T17:26:03.900Z,10.20
2019-02-11T17:28:31.350Z,9.94
2019-02-11T17:30:59.052Z,9.23
2019-02-11T17:33:26.504Z,9.29
2019-02-11T17:35:53.955Z,8.92
2019-02-11T17:38:21.750Z,8.75
2019-02-11T17:40:49.282Z,8.69
2019-02-11T17:43:16.826Z,8.67
2019-02-11T17:45:44.339Z,8.56
2019-02-11T17:48:11.808Z,8.48
2019-02-11T17:50:39.441Z,8.43
2019-02-11T17:53:08.298Z,8.57
2019-02-11T17:55:35.744Z,8.63
2019-02-11T17:58:03.731Z,8.64
2019-02-11T18:00:36.296Z,8.63
2019-02-11T18:03:03.937Z,8.46
2019-02-11T18:05:31.354Z,8.33
2019-02-11T18:07:58.895Z,8.16
2019-02-11T18:10:26.366Z,8.20
2019-02-11T18:12:53.895Z,8.45
2019-02-11T18:15:21.348Z,8.48
2019-02-11T18:17:49.048Z,8.63
2019-02-11T18:20:16.900Z,8.68
2019-02-11T18:22:44.445Z,8.80
2019-02-11T18:25:11.856Z,8.69
2019-02-11T18:27:39.369Z,8.84
2019-02-11T18:30:07.971Z,8.85
2019-02-11T18:32:35.417Z,8.53
2019-02-11T18:35:03.482Z,8.58
2019-02-11T18:37:30.901Z,8.73
2019-02-11T18:39:58.381Z,8.83
2019-02-11T18:42:26.120Z,9.00
2019-02-11T18:44:53.752Z,8.84
2019-02-11T18:47:21.324Z,8.87
2019-02-11T18:49:48.888Z,8.89
2019-02-11T18:52:16.883Z,8.75
2019-02-11T18:54:44.301Z,8.72
2019-02-11T18:57:11.792Z,8.43
2019-02-11T18:59:39.271Z,8.29
2019-02-11T19:02:06.796Z,8.28
2019-02-11T19:04:34.260Z,8.32
2019-02-11T19:07:01.690Z,8.12
2019-02-11T19:09:29.246Z,7.96
2019-02-11T19:11:56.608Z,8.13
2019-02-11T19:14:24.252Z,8.17
2019-02-11T19:16:51.956Z,8.48
2019-02-11T19:19:19.390Z,8.69
2019-02-11T19:21:47.106Z,8.66
2019-02-11T19:24:14.926Z,8.33
2019-02-11T19:26:42.987Z,8.50
2019-02-11T19:29:10.540Z,8.46
2019-02-11T19:31:38.287Z,8.48
2019-02-11T19:34:05.759Z,8.24
2019-02-11T19:36:33.201Z,8.13
2019-02-11T19:39:00.923Z,8.16
2019-02-11T19:41:28.583Z,8.26
2019-02-11T19:43:56.756Z,8.40
2019-02-11T19:46:24.557Z,8.48
2019-02-11T19:48:52.362Z,8.47
2019-02-11T19:51:20.085Z,8.61
2019-02-11T19:53:47.899Z,8.75
2019-02-11T19:56:16.353Z,8.30
2019-02-11T19:58:44.391Z,8.05
2019-02-11T20:01:12.028Z,8.18
2019-02-11T20:03:42.371Z,7.94
2019-02-11T20:06:11.539Z,7.79
2019-02-11T20:08:39.422Z,7.76
2019-02-11T20:11:07.029Z,7.99
2019-02-11T20:13:34.461Z,7.87
2019-02-11T20:16:02.003Z,7.64
2019-02-11T20:18:29.882Z,7.85
2019-02-11T20:20:57.295Z,7.87
2019-02-11T20:23:24.813Z,7.71
2019-02-11T20:25:52.788Z,7.74
2019-02-11T20:28:20.207Z,7.61
2019-02-11T20:30:47.765Z,7.63
2019-02-11T20:33:15.207Z,7.76
2019-02-11T20:35:43.821Z,7.89
2019-02-11T20:38:11.862Z,7.90
2019-02-11T20:40:39.293Z,8.17
2019-02-11T20:43:06.765Z,8.31
2019-02-11T20:45:34.204Z,8.41
2019-02-11T20:48:01.597Z,8.60
2019-02-11T20:50:29.037Z,8.39
2019-02-11T20:52:56.562Z,8.48
2019-02-11T20:55:24.019Z,8.32
2019-02-11T20:57:52.934Z,8.34
2019-02-11T21:00:21.837Z,8.54
2019-02-11T21:02:49.196Z,8.30
2019-02-11T21:05:16.845Z,8.19
2019-02-11T21:07:44.325Z,8.16
2019-02-11T21:10:12.652Z,8.20
2019-02-11T21:12:40.107Z,8.32
2019-02-11T21:15:09.230Z,8.38
2019-02-11T21:17:36.681Z,8.58
2019-02-11T21:20:07.994Z,8.62
2019-02-11T21:22:35.492Z,8.74
2019-02-11T21:25:03.136Z,8.55
2019-02-11T21:27:30.581Z,8.27
2019-02-11T21:29:57.995Z,8.21
2019-02-11T21:32:25.531Z,8.13
2019-02-11T21:34:53.052Z,8.10
2019-02-11T21:37:20.477Z,7.95
2019-02-11T21:39:47.953Z,7.83
2019-02-11T21:42:15.289Z,7.84
2019-02-11T21:44:42.833Z,7.99
2019-02-11T21:47:10.253Z,7.61
2019-02-11T21:49:37.639Z,7.13
2019-02-11T21:52:05.081Z,6.75
2019-02-11T21:54:32.615Z,6.51
2019-02-11T21:56:59.973Z,6.46
2019-02-11T21:59:27.389Z,6.42
2019-02-11T22:01:54.813Z,6.58
2019-02-11T22:04:22.238Z,6.63
2019-02-11T22:06:49.662Z,6.67
2019-02-11T22:09:17.087Z,6.66
2019-02-11T22:11:44.551Z,6.62
2019-02-11T22:14:12.442Z,6.11
2019-02-11T22:16:39.877Z,5.69
2019-02-11T22:19:07.310Z,5.48
2019-02-11T22:21:34.750Z,5.32
2019-02-11T22:24:02.184Z,4.93
2019-02-11T22:26:29.563Z,4.59
2019-02-11T22:28:57.004Z,4.23
2019-02-11T22:31:24.829Z,3.87
2019-02-11T22:33:52.505Z,3.61
2019-02-11T22:36:19.911Z,3.30
2019-02-11T22:38:47.266Z,3.27
2019-02-11T22:41:14.695Z,2.95
2019-02-11T22:43:43.426Z,2.88
2019-02-11T22:46:10.768Z,2.80
2019-02-11T22:48:38.241Z,2.76
2019-02-11T22:51:05.728Z,2.73
2019-02-11T22:53:33.159Z,2.89
2019-02-11T22:56:00.623Z,2.99
2019-02-11T22:58:28.035Z,2.94
2019-02-11T23:01:05.663Z,3.12
2019-02-11T23:03:34.878Z,3.30
2019-02-11T23:06:02.756Z,3.23
2019-02-11T23:08:30.183Z,3.26
2019-02-11T23:10:57.569Z,3.28
2019-02-11T23:13:25.031Z,3.31
2019-02-11T23:15:52.593Z,3.26
2019-02-11T23:18:19.960Z,3.34
2019-02-11T23:20:52.067Z,3.49
2019-02-11T23:23:16.779Z,3.49
2019-02-11T23:25:44.181Z,3.49
2019-02-11T23:28:11.557Z,3.55
2019-02-11T23:30:39.251Z,3.63
2019-02-11T23:33:06.805Z,3.56
2019-02-11T23:35:34.411Z,3.61
2019-02-11T23:38:01.885Z,3.65
2019-02-11T23:40:29.409Z,3.53
2019-02-11T23:42:56.791Z,3.50
2019-02-11T23:45:24.244Z,3.53
2019-02-11T23:47:51.691Z,3.48
2019-02-11T23:50:19.061Z,3.38
2019-02-11T23:52:46.505Z,3.56
2019-02-11T23:55:13.950Z,3.55
2019-02-11T23:57:41.423Z,3.65
